Time;durP1;ratioP1;P1;durP2;ratioP2;P2;SDS_P1;SDS_P2;PMS_P1;PMS_P2;Temp;Humidity;BMP_temperature;BMP_pressure;BME280_temperature;BME280_humidity;BME280_pressure;Samples;Min_cycle;Max_cycle;Signal;HPM_P1;HPM_P2
2022/08/05 00:01:58;;;;;;;5.68;4.60;;;18.10;99.90;;;;;;8326722;28;20033;-78
2022/08/05 00:05:58;;;;;;;5.25;4.75;;;18.30;99.90;;;;;;8328015;28;20025;-78
2022/08/05 00:09:59;;;;;;;5.50;4.55;;;18.40;99.90;;;;;;8326657;28;20025;-78
2022/08/05 00:13:59;;;;;;;8.70;4.75;;;18.20;99.90;;;;;;8328080;28;20029;-81
2022/08/05 00:18:00;;;;;;;6.03;4.88;;;18.10;99.90;;;;;;8328367;28;20026;-78
2022/08/05 00:22:01;;;;;;;5.30;4.28;;;18.00;99.90;;;;;;8328262;28;20096;-78
2022/08/05 00:26:02;;;;;;;4.93;4.45;;;17.90;99.90;;;;;;8327102;28;20101;-78
2022/08/05 00:30:04;;;;;;;5.28;4.55;;;17.90;99.90;;;;;;8325897;28;20052;-78
2022/08/05 00:34:04;;;;;;;5.68;4.63;;;18.00;99.90;;;;;;8327719;28;20117;-78
2022/08/05 00:38:05;;;;;;;6.60;4.22;;;18.20;99.90;;;;;;8326440;28;20439;-78
2022/08/05 00:42:05;;;;;;;8.10;4.20;;;18.20;99.90;;;;;;8326145;28;20045;-78
2022/08/05 00:46:06;;;;;;;4.72;4.32;;;18.20;99.90;;;;;;8326951;28;20017;-78
2022/08/05 00:50:08;;;;;;;4.95;4.18;;;18.00;99.90;;;;;;8325594;28;20032;-78
2022/08/05 00:54:11;;;;;;;7.82;4.40;;;17.80;99.90;;;;;;8326607;28;20072;-79
2022/08/05 00:58:15;;;;;;;4.70;4.25;;;17.70;99.90;;;;;;8324471;28;20030;-78
2022/08/05 01:02:16;;;;;;;5.70;4.07;;;17.60;99.90;;;;;;8324304;28;20499;-79
2022/08/05 01:06:16;;;;;;;4.78;4.28;;;17.60;99.90;;;;;;8326807;28;20021;-78
2022/08/05 01:10:21;;;;;;;5.70;4.32;;;17.50;99.90;;;;;;8324854;28;20029;-78
2022/08/05 01:14:36;;;;;;;4.85;4.35;;;17.50;99.90;;;;;;8326464;28;20436;-79
2022/08/05 01:18:41;;;;;;;5.05;4.55;;;17.50;99.90;;;;;;8321996;28;20025;-78
2022/08/05 01:22:44;;;;;;;6.03;4.40;;;17.40;99.90;;;;;;8324594;28;20033;-78
2022/08/05 01:26:53;;;;;;;4.55;4.15;;;17.30;99.90;;;;;;8325996;28;20040;-78
2022/08/05 01:31:07;;;;;;;5.70;4.05;;;17.30;99.90;;;;;;8320257;28;20421;-78
2022/08/05 01:35:12;;;;;;;5.53;4.20;;;17.40;99.90;;;;;;8322602;28;20551;-78
2022/08/05 01:39:15;;;;;;;8.65;4.68;;;17.60;99.90;;;;;;8324138;28;20021;-78
2022/08/05 01:43:17;;;;;;;5.63;4.43;;;17.70;99.90;;;;;;8322004;28;20068;-78
2022/08/05 01:47:20;;;;;;;5.80;4.10;;;17.60;99.90;;;;;;8325572;28;20013;-78
2022/08/05 01:51:21;;;;;;;7.00;4.45;;;17.60;99.90;;;;;;8324077;28;20033;-78
2022/08/05 01:55:25;;;;;;;5.45;3.88;;;17.60;99.90;;;;;;8324276;28;20033;-79
2022/08/05 01:59:29;;;;;;;5.57;4.13;;;17.70;99.90;;;;;;8324195;28;20361;-78
2022/08/05 02:03:39;;;;;;;5.35;4.85;;;17.70;99.90;;;;;;8324531;28;20090;-79
2022/08/05 02:07:43;;;;;;;5.50;4.63;;;17.80;99.90;;;;;;8325834;28;20026;-78
2022/08/05 02:11:55;;;;;;;6.20;4.85;;;17.80;99.90;;;;;;8323849;28;20064;-78
2022/08/05 02:16:10;;;;;;;8.48;5.47;;;17.70;99.90;;;;;;8324589;28;20028;-78
2022/08/05 02:20:19;;;;;;;6.18;5.05;;;17.70;99.90;;;;;;8320027;28;20036;-78
2022/08/05 02:24:25;;;;;;;5.38;4.88;;;17.80;99.90;;;;;;8324838;28;20424;-78
2022/08/05 02:28:29;;;;;;;6.32;4.93;;;17.70;99.90;;;;;;8323843;28;20036;-78
2022/08/05 02:32:32;;;;;;;6.45;5.38;;;17.60;99.90;;;;;;8331056;28;20022;-78
2022/08/05 02:36:36;;;;;;;5.30;4.75;;;17.50;99.90;;;;;;8329410;28;20501;-78
2022/08/05 02:40:41;;;;;;;6.05;4.93;;;17.50;99.90;;;;;;8328674;28;20049;-78
2022/08/05 02:44:43;;;;;;;6.22;5.07;;;17.60;99.90;;;;;;8330957;28;20489;-78
2022/08/05 02:48:44;;;;;;;5.68;5.00;;;17.80;99.90;;;;;;8331431;28;20022;-79
2022/08/05 02:52:46;;;;;;;8.32;5.32;;;17.80;99.90;;;;;;8330624;28;20055;-78
2022/08/05 02:56:47;;;;;;;6.38;4.53;;;17.80;99.90;;;;;;8330706;28;20033;-78
2022/08/05 03:00:48;;;;;;;6.13;5.28;;;17.70;99.90;;;;;;8328709;28;20440;-78
2022/08/05 03:04:52;;;;;;;6.25;4.85;;;17.60;99.90;;;;;;8329122;28;20392;-78
2022/08/05 03:08:54;;;;;;;5.28;4.78;;;17.50;99.90;;;;;;8327734;28;20120;-79
2022/08/05 03:12:54;;;;;;;7.57;4.82;;;17.50;99.90;;;;;;8328688;28;20025;-78
2022/08/05 03:16:55;;;;;;;5.63;5.05;;;17.70;99.90;;;;;;8330225;28;20029;-78
2022/08/05 03:20:56;;;;;;;6.07;4.90;;;17.80;99.90;;;;;;8330276;28;20108;-78
2022/08/05 03:24:57;;;;;;;8.10;5.20;;;17.90;99.90;;;;;;8328365;28;20018;-77
2022/08/05 03:28:58;;;;;;;6.03;5.10;;;17.80;99.90;;;;;;8328659;28;20497;-78
2022/08/05 03:33:03;;;;;;;7.60;4.75;;;17.80;99.90;;;;;;8328367;28;20034;-78
2022/08/05 03:37:05;;;;;;;7.88;4.93;;;18.00;99.90;;;;;;8328539;28;20029;-78
2022/08/05 03:41:05;;;;;;;6.40;4.75;;;18.20;99.90;;;;;;8326379;28;20025;-80
2022/08/05 03:45:07;;;;;;;5.55;5.00;;;18.30;99.90;;;;;;8327935;28;20151;-78
2022/08/05 03:49:08;;;;;;;7.80;4.13;;;18.60;99.90;;;;;;8327948;28;20477;-78
2022/08/05 03:53:17;;;;;;;5.45;3.80;;;18.70;99.90;;;;;;8327803;28;20017;-78
2022/08/05 03:57:24;;;;;;;9.23;3.60;;;19.60;99.90;;;;;;8327965;28;20079;-78
2022/08/05 04:01:29;;;;;;;4.35;3.90;;;19.80;99.90;;;;;;8328436;28;20044;-79
2022/08/05 04:05:32;;;;;;;4.47;3.90;;;20.20;99.90;;;;;;8326934;28;20009;-79
2022/08/05 04:09:33;;;;;;;4.50;4.10;;;20.50;99.90;;;;;;8326426;28;20037;-78
2022/08/05 04:13:38;;;;;;;6.68;3.63;;;20.80;99.90;;;;;;8322984;28;20524;-78
2022/08/05 04:17:39;;;;;;;4.38;3.90;;;21.20;99.90;;;;;;8326981;28;20591;-78
2022/08/05 04:21:40;;;;;;;4.43;4.03;;;21.10;99.90;;;;;;8327726;28;20025;-78
2022/08/05 04:25:40;;;;;;;4.05;3.65;;;21.20;99.90;;;;;;8326164;28;20099;-78
2022/08/05 04:29:41;;;;;;;4.53;3.75;;;21.20;99.90;;;;;;8327304;28;20025;-79
2022/08/05 04:33:42;;;;;;;5.15;4.00;;;21.30;99.90;;;;;;8325748;28;20025;-78
2022/08/05 04:37:42;;;;;;;4.22;3.67;;;21.10;99.90;;;;;;8325900;28;20109;-78
2022/08/05 04:41:43;;;;;;;6.03;3.92;;;21.10;99.90;;;;;;8325535;28;20017;-78
2022/08/05 04:45:43;;;;;;;7.10;3.90;;;21.40;99.90;;;;;;8324136;28;20731;-79
2022/08/05 04:49:44;;;;;;;4.30;3.90;;;21.50;99.90;;;;;;8325199;28;20056;-79
2022/08/05 04:53:44;;;;;;;8.70;3.90;;;22.10;99.90;;;;;;8325984;28;20036;-79
2022/08/05 04:57:45;;;;;;;5.10;3.67;;;22.20;99.90;;;;;;8325307;28;20025;-78
2022/08/05 05:01:46;;;;;;;4.18;3.75;;;22.20;99.90;;;;;;8326871;28;20504;-78
2022/08/05 05:05:46;;;;;;;5.15;3.70;;;22.10;99.90;;;;;;8325207;28;20028;-78
2022/08/05 05:09:47;;;;;;;6.53;3.83;;;22.30;99.90;;;;;;8324438;28;20040;-78
2022/08/05 05:13:47;;;;;;;4.07;3.65;;;22.30;99.90;;;;;;8324416;28;20032;-78
2022/08/05 05:17:48;;;;;;;6.60;3.80;;;22.40;99.90;;;;;;8323824;28;20025;-78
2022/08/05 05:21:48;;;;;;;4.20;3.80;;;22.40;99.90;;;;;;8324545;28;20018;-78
2022/08/05 05:25:49;;;;;;;3.78;3.33;;;22.50;99.90;;;;;;8324442;28;20104;-79
2022/08/05 05:29:49;;;;;;;4.80;3.70;;;22.60;99.90;;;;;;8323851;28;20036;-81
2022/08/05 05:33:50;;;;;;;4.45;3.40;;;22.50;99.90;;;;;;8326636;28;20744;-81
2022/08/05 05:37:51;;;;;;;8.30;3.60;;;22.50;99.90;;;;;;8326856;28;20041;-81
2022/08/05 05:41:52;;;;;;;4.38;3.90;;;22.40;99.90;;;;;;8325847;28;20121;-82
2022/08/05 05:45:52;;;;;;;4.57;3.53;;;22.80;99.90;;;;;;8326119;28;20038;-82
2022/08/05 05:49:54;;;;;;;5.15;3.78;;;22.50;99.90;;;;;;8325045;28;20032;-80
2022/08/05 05:53:56;;;;;;;8.38;3.65;;;22.30;99.90;;;;;;8324789;28;20389;-81
2022/08/05 05:57:56;;;;;;;3.58;3.00;;;22.20;99.90;;;;;;8326202;28;20029;-81
2022/08/05 06:01:57;;;;;;;4.38;3.60;;;22.30;99.90;;;;;;8323232;28;20440;-81
2022/08/05 06:05:57;;;;;;;4.05;3.65;;;22.60;99.90;;;;;;8326951;28;20108;-81
2022/08/05 06:09:58;;;;;;;5.57;3.40;;;23.00;99.90;;;;;;8328480;28;20037;-81
2022/08/05 06:13:59;;;;;;;3.80;3.50;;;23.40;99.90;;;;;;8331376;28;20553;-80
2022/08/05 06:18:00;;;;;;;4.10;3.70;;;23.00;99.90;;;;;;8331213;28;20625;-81
2022/08/05 06:22:01;;;;;;;6.22;3.30;;;22.80;99.90;;;;;;8330834;28;20032;-81
2022/08/05 06:26:02;;;;;;;8.68;3.35;;;22.80;99.90;;;;;;8330897;28;20014;-81
2022/08/05 06:30:04;;;;;;;8.15;3.60;;;23.00;99.90;;;;;;8328997;28;20517;-82
2022/08/05 06:34:05;;;;;;;5.30;3.00;;;23.30;99.90;;;;;;8328384;28;20029;-80
2022/08/05 06:38:05;;;;;;;6.88;3.38;;;23.70;99.90;;;;;;8330179;28;20404;-82
2022/08/05 06:42:06;;;;;;;6.50;3.10;;;24.10;99.90;;;;;;8328329;28;20490;-81
2022/08/05 06:46:06;;;;;;;2.90;2.60;;;24.90;99.90;;;;;;8325262;28;20025;-82
2022/08/05 06:50:08;;;;;;;6.13;2.95;;;25.60;99.90;;;;;;8329420;28;20036;-82
2022/08/05 06:54:08;;;;;;;4.35;2.95;;;26.60;99.90;;;;;;8314799;28;20029;-82
2022/08/05 06:58:09;;;;;;;6.93;2.65;;;27.50;99.90;;;;;;8325785;28;20030;-81
2022/08/05 07:02:09;;;;;;;7.22;3.08;;;28.30;99.90;;;;;;8320003;28;20500;-82
2022/08/05 07:06:10;;;;;;;4.90;2.80;;;28.80;99.90;;;;;;8327231;28;20021;-82
2022/08/05 07:10:11;;;;;;;4.07;2.88;;;28.80;99.90;;;;;;8326062;28;20065;-83
2022/08/05 07:18:31;;;;;;;11.10;3.35;;;28.30;99.90;;;;;;8327833;28;20036;-82
2022/08/05 07:22:31;;;;;;;6.55;3.10;;;28.50;99.90;;;;;;8327311;28;20025;-83
2022/08/05 07:26:32;;;;;;;8.07;3.10;;;28.40;99.90;;;;;;8327850;28;20367;-83
2022/08/05 07:30:35;;;;;;;7.60;4.05;;;28.10;99.90;;;;;;8329821;28;20227;-82
2022/08/05 07:34:35;;;;;;;3.78;3.00;;;27.90;99.90;;;;;;8327540;28;20120;-83
2022/08/05 07:38:36;;;;;;;4.60;3.05;;;27.80;99.90;;;;;;8326951;28;20409;-82
2022/08/05 07:42:37;;;;;;;4.80;2.63;;;27.50;99.90;;;;;;8326404;28;20261;-83
2022/08/05 07:46:37;;;;;;;9.55;3.35;;;27.70;99.90;;;;;;8326376;28;20041;-83
2022/08/05 07:50:38;;;;;;;6.70;3.30;;;27.70;99.90;;;;;;8325978;28;20018;-82
2022/08/05 07:54:38;;;;;;;9.13;3.50;;;27.90;99.90;;;;;;8323817;28;20051;-83
2022/08/05 07:58:39;;;;;;;11.77;3.47;;;28.10;99.90;;;;;;8326237;28;20026;-83
2022/08/05 08:02:40;;;;;;;8.50;3.20;;;28.10;99.90;;;;;;8326865;28;20108;-83
2022/08/05 08:06:40;;;;;;;10.50;3.70;;;28.10;99.90;;;;;;8328271;28;20021;-83
2022/08/05 08:10:41;;;;;;;7.05;2.70;;;28.20;99.90;;;;;;8327510;28;20080;-83
2022/08/05 08:14:42;;;;;;;4.65;3.03;;;28.70;99.90;;;;;;8328325;28;20521;-82
2022/08/05 08:18:42;;;;;;;7.63;3.10;;;28.60;99.90;;;;;;8327727;28;20060;-83
2022/08/05 08:22:49;;;;;;;7.95;2.60;;;28.40;99.90;;;;;;8328904;28;20013;-81
2022/08/05 08:26:49;;;;;;;10.55;2.90;;;28.50;99.90;;;;;;8328667;28;20079;-83
2022/08/05 08:30:50;;;;;;;4.93;2.33;;;28.30;99.90;;;;;;8329885;28;20017;-83
2022/08/05 08:34:50;;;;;;;4.30;2.33;;;28.30;99.90;;;;;;8330087;28;20319;-83
2022/08/05 08:38:54;;;;;;;5.95;2.17;;;28.00;99.90;;;;;;8328708;28;20457;-83
2022/08/05 08:42:54;;;;;;;3.38;2.30;;;28.00;99.90;;;;;;8327116;28;20447;-84
2022/08/05 08:46:55;;;;;;;3.72;1.60;;;28.20;99.90;;;;;;8327183;28;20277;-83
2022/08/05 08:50:56;;;;;;;2.90;1.80;;;28.30;98.90;;;;;;8326873;28;20482;-82
2022/08/05 08:54:57;;;;;;;1.80;1.60;;;28.70;99.30;;;;;;8323962;28;20029;-82
2022/08/05 08:58:59;;;;;;;3.00;1.88;;;28.90;96.90;;;;;;8326681;28;20397;-84
2022/08/05 09:03:00;;;;;;;5.22;2.17;;;29.20;96.60;;;;;;8326600;28;20063;-84
2022/08/05 09:07:01;;;;;;;3.55;1.52;;;29.10;97.40;;;;;;8327098;28;20034;-83
2022/08/05 09:11:02;;;;;;;1.50;1.40;;;29.30;98.60;;;;;;8324751;28;20035;-82
2022/08/05 09:15:04;;;;;;;3.65;1.60;;;29.20;95.00;;;;;;8327512;28;20026;-82
2022/08/05 09:19:07;;;;;;;4.32;1.67;;;29.20;95.30;;;;;;8325801;28;20288;-82
2022/08/05 09:23:12;;;;;;;5.35;1.90;;;29.40;92.70;;;;;;8326754;28;20028;-82
2022/08/05 09:27:33;;;;;;;4.07;1.90;;;29.10;96.30;;;;;;8327878;28;20029;-83
2022/08/05 09:31:34;;;;;;;8.57;1.67;;;29.20;95.00;;;;;;8327310;28;20022;-82
2022/08/05 09:35:34;;;;;;;4.80;1.90;;;29.60;96.80;;;;;;8327123;28;20033;-83
2022/08/05 09:39:37;;;;;;;2.00;1.80;;;29.90;98.40;;;;;;8325538;28;20040;-84
2022/08/05 09:43:38;;;;;;;4.35;1.85;;;30.00;96.30;;;;;;8326703;28;20021;-83
2022/08/05 09:47:41;;;;;;;4.68;1.85;;;30.00;95.40;;;;;;8325512;28;20137;-83
2022/08/05 09:51:41;;;;;;;4.93;2.00;;;30.40;96.80;;;;;;8324950;28;20306;-84
2022/08/05 09:55:42;;;;;;;2.30;1.70;;;30.60;92.30;;;;;;8324234;28;20030;-83
2022/08/05 09:59:46;;;;;;;4.15;2.00;;;30.50;92.00;;;;;;8326424;28;20022;-83
2022/08/05 10:03:55;;;;;;;3.85;1.80;;;31.00;91.30;;;;;;8327038;28;20461;-83
2022/08/05 10:08:05;;;;;;;6.63;1.92;;;31.40;93.40;;;;;;8350176;28;20037;-83
2022/08/05 10:12:09;;;;;;;3.72;2.42;;;30.60;92.30;;;;;;8326093;28;20034;-83
2022/08/05 10:16:33;;;;;;;5.13;2.30;;;30.80;93.10;;;;;;8324075;28;20553;-83
2022/08/05 10:20:38;;;;;;;4.70;1.98;;;31.20;90.80;;;;;;8327932;28;20021;-83
2022/08/05 10:24:38;;;;;;;2.17;1.88;;;30.40;93.80;;;;;;8325941;28;20022;-83
2022/08/05 10:28:40;;;;;;;4.00;1.90;;;30.60;91.40;;;;;;8327262;28;20044;-83
2022/08/05 10:32:42;;;;;;;3.75;2.10;;;31.30;90.70;;;;;;8326940;28;20436;-83
2022/08/05 10:36:43;;;;;;;5.20;2.08;;;31.00;88.80;;;;;;8326877;28;20033;-83
2022/08/05 10:40:53;;;;;;;2.85;2.30;;;31.20;92.50;;;;;;8326064;28;20401;-83
2022/08/05 10:44:55;;;;;;;2.38;2.17;;;31.20;91.40;;;;;;8319015;28;20375;-83
2022/08/05 10:48:56;;;;;;;7.57;2.20;;;31.40;90.90;;;;;;8326014;28;20071;-84
2022/08/05 10:52:58;;;;;;;3.50;2.40;;;31.10;90.40;;;;;;8331622;28;20025;-83
2022/08/05 10:56:59;;;;;;;3.45;2.20;;;31.90;87.30;;;;;;8329481;28;20029;-83
2022/08/05 11:01:03;;;;;;;4.85;2.20;;;31.30;92.50;;;;;;8330685;28;20028;-83
2022/08/05 11:05:08;;;;;;;5.38;2.28;;;31.30;93.20;;;;;;8332630;28;20113;-84
2022/08/05 11:09:20;;;;;;;3.25;2.20;;;31.20;88.20;;;;;;8330543;28;20029;-84
2022/08/05 11:13:42;;;;;;;3.60;1.90;;;31.60;89.40;;;;;;8330341;28;20112;-84
2022/08/05 11:17:53;;;;;;;3.63;2.00;;;32.30;83.30;;;;;;8332014;28;20616;-83
2022/08/05 11:21:55;;;;;;;4.20;2.00;;;32.60;84.90;;;;;;8330925;28;20025;-83
2022/08/05 11:26:03;;;;;;;2.83;2.08;;;33.30;74.30;;;;;;8330978;28;20023;-83
2022/08/05 11:30:04;;;;;;;3.33;2.03;;;34.60;74.70;;;;;;8326764;28;20026;-83
2022/08/05 11:34:06;;;;;;;2.17;1.90;;;35.60;69.70;;;;;;8329874;28;20447;-83
2022/08/05 11:38:07;;;;;;;3.15;2.33;;;35.70;72.60;;;;;;8330926;28;20029;-84
2022/08/05 11:42:09;;;;;;;2.85;2.08;;;34.50;79.50;;;;;;8328504;28;20029;-84
2022/08/05 11:46:10;;;;;;;3.95;2.47;;;33.90;76.30;;;;;;8328406;28;20405;-83
2022/08/05 11:50:10;;;;;;;3.60;2.15;;;35.10;74.90;;;;;;8329224;28;20021;-83
2022/08/05 11:54:12;;;;;;;5.97;2.38;;;36.00;64.20;;;;;;8328766;28;20040;-85
2022/08/05 11:58:27;;;;;;;2.92;1.90;;;35.30;72.40;;;;;;8328079;28;20397;-82
2022/08/05 12:02:32;;;;;;;3.75;2.00;;;34.70;67.10;;;;;;8327068;28;20909;-84
2022/08/05 12:06:34;;;;;;;5.63;2.50;;;35.60;64.90;;;;;;8328825;28;20075;-83
2022/08/05 12:10:37;;;;;;;5.40;2.35;;;36.20;70.50;;;;;;8329732;28;20025;-83
2022/08/05 12:14:40;;;;;;;2.58;2.00;;;35.60;65.00;;;;;;8322264;28;20375;-83
2022/08/05 12:18:40;;;;;;;2.50;1.90;;;36.80;60.20;;;;;;8324202;28;20021;-83
2022/08/05 12:22:41;;;;;;;2.22;2.00;;;37.60;62.10;;;;;;8327824;28;20025;-82
2022/08/05 12:26:51;;;;;;;2.90;1.98;;;39.00;56.30;;;;;;8326072;28;20036;-83
2022/08/05 12:30:52;;;;;;;3.22;2.10;;;40.00;51.70;;;;;;8327774;28;20025;-82
2022/08/05 12:34:53;;;;;;;3.83;2.10;;;40.20;50.50;;;;;;8326468;28;20083;-83
2022/08/05 12:38:55;;;;;;;2.30;2.08;;;39.40;50.10;;;;;;8327903;28;20025;-82
2022/08/05 12:42:56;;;;;;;2.58;2.10;;;40.20;50.20;;;;;;8327754;28;20452;-83
2022/08/05 12:46:56;;;;;;;3.17;2.10;;;39.60;52.70;;;;;;8327540;28;20037;-83
2022/08/05 12:51:15;;;;;;;3.50;2.10;;;38.30;52.00;;;;;;8323774;28;20055;-83
2022/08/05 12:55:20;;;;;;;2.70;1.95;;;37.20;56.70;;;;;;8322927;28;20102;-84
2022/08/05 12:59:32;;;;;;;2.35;2.05;;;37.90;57.30;;;;;;8324177;28;20025;-83
2022/08/05 13:03:37;;;;;;;3.55;1.88;;;37.50;51.00;;;;;;8325199;28;20030;-83
2022/08/05 13:07:44;;;;;;;2.90;2.10;;;38.40;50.50;;;;;;8324684;28;20478;-84
2022/08/05 13:11:44;;;;;;;3.10;2.33;;;40.20;49.10;;;;;;8325485;28;20091;-83
2022/08/05 13:15:50;;;;;;;2.70;2.20;;;41.00;45.90;;;;;;8323013;28;20025;-83
2022/08/05 13:20:01;;;;;;;2.67;2.00;;;40.20;49.70;;;;;;8324788;28;20107;-83
2022/08/05 13:24:01;;;;;;;2.92;2.20;;;37.90;54.30;;;;;;8326283;28;20025;-83
2022/08/05 13:28:03;;;;;;;2.20;2.00;;;36.00;56.80;;;;;;8324494;28;20355;-83
2022/08/05 13:32:04;;;;;;;4.18;2.17;;;37.60;53.30;;;;;;8324546;28;20053;-83
2022/08/05 13:36:05;;;;;;;2.20;1.92;;;40.10;49.70;;;;;;8322156;28;20469;-84
2022/08/05 13:40:07;;;;;;;5.13;2.08;;;40.80;48.40;;;;;;8321565;28;20737;-82
2022/08/05 13:44:07;;;;;;;4.57;2.10;;;41.60;48.50;;;;;;8322558;28;20017;-84
2022/08/05 13:48:08;;;;;;;4.22;1.90;;;41.10;49.50;;;;;;8322130;28;20022;-83
2022/08/05 13:52:20;;;;;;;2.95;2.03;;;41.60;47.00;;;;;;8320868;28;20056;-83
2022/08/05 13:56:20;;;;;;;2.60;2.40;;;41.00;45.50;;;;;;8338113;28;20026;-83
2022/08/05 14:00:21;;;;;;;4.78;2.33;;;40.90;48.10;;;;;;8320045;28;20033;-84
2022/08/05 14:08:40;;;;;;;3.15;2.30;;;40.70;48.50;;;;;;8326787;28;20045;-84
2022/08/05 14:12:42;;;;;;;3.22;2.17;;;41.10;45.20;;;;;;8327016;28;20549;-83
2022/08/05 14:16:43;;;;;;;7.60;2.55;;;39.80;47.80;;;;;;8323495;28;20089;-83
2022/08/05 14:20:45;;;;;;;66.60;6.75;;;39.00;48.40;;;;;;8327429;28;20104;-83
2022/08/05 14:24:45;;;;;;;54.15;9.73;;;39.30;47.10;;;;;;8326151;28;20052;-82
2022/08/05 14:28:46;;;;;;;2.30;2.10;;;40.60;46.70;;;;;;8332467;28;20033;-84
2022/08/05 14:32:47;;;;;;;4.43;2.08;;;42.50;41.30;;;;;;8329906;28;20033;-83
2022/08/05 14:36:48;;;;;;;3.03;2.20;;;43.30;41.80;;;;;;8330770;28;20030;-83
2022/08/05 14:40:48;;;;;;;145.77;11.68;;;43.00;43.20;;;;;;8330756;28;20403;-84
2022/08/05 14:44:49;;;;;;;3.50;2.38;;;43.40;43.00;;;;;;8330675;28;20033;-82
2022/08/05 14:48:49;;;;;;;3.72;2.22;;;42.70;43.50;;;;;;8332133;28;20022;-84
2022/08/05 14:52:50;;;;;;;27.73;4.85;;;42.30;42.30;;;;;;8331429;28;20025;-83
2022/08/05 14:56:50;;;;;;;3.58;2.47;;;41.60;45.10;;;;;;8333929;28;20049;-82
2022/08/05 15:00:51;;;;;;;2.78;2.25;;;39.20;47.50;;;;;;8332550;28;20070;-84
2022/08/05 15:04:52;;;;;;;4.10;2.30;;;38.40;51.70;;;;;;8330378;28;20583;-82
2022/08/05 15:08:54;;;;;;;3.45;2.10;;;38.90;50.80;;;;;;8329034;28;20442;-82
2022/08/05 15:12:55;;;;;;;3.67;2.40;;;39.00;49.30;;;;;;8330636;28;20092;-84
2022/08/05 15:16:56;;;;;;;3.17;2.30;;;38.90;49.30;;;;;;8326894;28;20763;-84
2022/08/05 15:20:56;;;;;;;4.03;2.60;;;39.60;48.30;;;;;;8325866;28;20029;-84
2022/08/05 15:24:57;;;;;;;3.88;2.40;;;39.00;49.90;;;;;;8326993;28;20064;-82
2022/08/05 15:28:58;;;;;;;2.72;2.30;;;39.00;47.50;;;;;;8324513;28;20485;-83
2022/08/05 15:32:59;;;;;;;2.97;2.53;;;39.50;46.80;;;;;;8327409;28;20108;-84
2022/08/05 15:37:00;;;;;;;4.15;2.67;;;39.10;48.80;;;;;;8326195;28;20040;-82
2022/08/05 15:41:01;;;;;;;3.25;2.58;;;38.30;48.80;;;;;;8328180;28;20033;-84
2022/08/05 15:45:02;;;;;;;3.72;2.55;;;37.20;51.90;;;;;;8325709;28;20021;-83
2022/08/05 15:49:02;;;;;;;5.07;2.60;;;34.10;57.40;;;;;;8326230;28;20452;-83
2022/08/05 15:53:03;;;;;;;5.00;2.45;;;32.90;58.80;;;;;;8326432;28;20033;-83
2022/08/05 15:57:04;;;;;;;3.70;2.70;;;32.60;60.50;;;;;;8325911;28;20033;-83
2022/08/05 16:01:04;;;;;;;4.32;2.50;;;32.40;59.20;;;;;;8325244;28;20026;-83
2022/08/05 16:05:06;;;;;;;5.28;2.65;;;32.40;62.50;;;;;;8325895;28;20030;-82
2022/08/05 16:09:06;;;;;;;5.05;2.58;;;32.30;66.00;;;;;;8325675;28;20034;-83
2022/08/05 16:13:07;;;;;;;3.35;2.78;;;31.90;65.90;;;;;;8324290;28;20032;-83
2022/08/05 16:17:07;;;;;;;3.53;2.58;;;31.50;71.80;;;;;;8305669;28;20065;-84
2022/08/05 16:21:08;;;;;;;2.50;2.30;;;31.30;75.30;;;;;;8319224;28;20071;-83
2022/08/05 16:25:09;;;;;;;5.90;2.63;;;31.00;74.60;;;;;;8325257;28;20505;-83
2022/08/05 16:29:09;;;;;;;7.60;2.90;;;30.70;73.30;;;;;;8322306;28;20022;-82
2022/08/05 16:33:10;;;;;;;3.08;2.85;;;30.60;72.90;;;;;;8314982;28;20395;-83
2022/08/05 16:37:10;;;;;;;3.30;2.53;;;30.60;72.50;;;;;;8320518;28;20055;-83
2022/08/05 16:41:11;;;;;;;3.50;2.80;;;30.40;74.50;;;;;;8319415;28;20022;-83
2022/08/05 16:45:11;;;;;;;2.97;2.67;;;30.40;75.40;;;;;;8314590;28;20120;-83
2022/08/05 16:49:12;;;;;;;8.82;2.92;;;30.30;75.60;;;;;;8314541;28;20021;-83
2022/08/05 16:53:13;;;;;;;5.20;3.00;;;30.40;76.60;;;;;;8319361;28;20108;-83
2022/08/05 16:57:14;;;;;;;4.50;3.10;;;30.30;80.50;;;;;;8319658;28;20032;-83
2022/08/05 17:01:15;;;;;;;3.22;2.70;;;30.10;80.50;;;;;;8325587;28;20021;-83
2022/08/05 17:05:16;;;;;;;4.15;3.03;;;29.80;81.50;;;;;;8321057;28;20040;-82
2022/08/05 17:09:17;;;;;;;4.95;2.97;;;29.30;86.00;;;;;;8326540;28;20037;-83
2022/08/05 17:13:17;;;;;;;3.20;2.80;;;28.90;84.90;;;;;;8323718;28;20172;-83
2022/08/05 17:17:18;;;;;;;3.58;2.58;;;28.60;86.80;;;;;;8321046;28;20759;-82
2022/08/05 17:21:18;;;;;;;3.35;2.78;;;28.10;86.60;;;;;;8321673;28;20091;-83
2022/08/05 17:25:19;;;;;;;5.25;2.55;;;27.70;86.40;;;;;;8320524;28;20030;-83
2022/08/05 17:29:19;;;;;;;4.72;2.85;;;27.30;91.10;;;;;;8315409;28;20041;-83
2022/08/05 17:33:20;;;;;;;4.68;3.00;;;27.00;90.40;;;;;;8319509;28;20087;-83
2022/08/05 17:37:21;;;;;;;3.80;3.05;;;26.80;91.20;;;;;;8315456;28;20040;-82
2022/08/05 17:41:22;;;;;;;5.30;3.30;;;26.80;96.30;;;;;;8314636;28;20032;-83
2022/08/05 17:45:25;;;;;;;5.47;3.08;;;26.60;94.60;;;;;;8317947;28;20466;-83
2022/08/05 17:49:26;;;;;;;4.60;3.63;;;26.40;94.80;;;;;;8310974;28;20021;-82
2022/08/05 17:53:26;;;;;;;3.70;3.10;;;26.20;99.10;;;;;;8317573;28;20414;-83
2022/08/05 17:57:27;;;;;;;4.70;3.60;;;26.00;99.70;;;;;;8315956;28;20029;-82
2022/08/05 18:01:28;;;;;;;4.90;3.70;;;26.00;99.90;;;;;;8318015;28;20253;-82
2022/08/05 18:05:28;;;;;;;4.30;3.90;;;26.00;99.90;;;;;;8321108;28;20033;-80
2022/08/05 18:09:29;;;;;;;4.75;3.15;;;26.20;99.90;;;;;;8312691;28;20389;-82
2022/08/05 18:13:30;;;;;;;7.05;3.35;;;26.00;99.90;;;;;;8315913;28;20022;-81
2022/08/05 18:17:31;;;;;;;5.63;3.35;;;26.00;99.90;;;;;;8310918;28;20029;-77
2022/08/05 18:21:33;;;;;;;5.18;3.60;;;26.20;99.90;;;;;;8302423;28;20072;-78
2022/08/05 18:25:34;;;;;;;5.10;3.85;;;25.70;99.90;;;;;;8314372;28;20026;-76
2022/08/05 18:29:35;;;;;;;4.95;3.85;;;24.60;99.90;;;;;;8304120;28;20036;-76
2022/08/05 18:33:36;;;;;;;4.97;3.80;;;23.90;99.90;;;;;;8319517;28;20026;-76
2022/08/05 18:37:36;;;;;;;3.80;3.40;;;23.40;99.90;;;;;;8312521;28;20468;-77
2022/08/05 18:41:37;;;;;;;3.78;3.10;;;23.10;99.90;;;;;;8315859;28;20030;-76
2022/08/05 18:45:37;;;;;;;4.32;3.22;;;22.80;99.90;;;;;;8302275;28;20033;-77
2022/08/05 18:53:57;;;;;;;6.03;3.40;;;22.70;99.90;;;;;;8309478;28;20048;-76
2022/08/05 18:57:58;;;;;;;8.55;2.90;;;22.90;99.90;;;;;;8314084;28;20124;-79
2022/08/05 19:01:58;;;;;;;5.30;3.15;;;23.10;99.90;;;;;;8319422;28;20040;-79
2022/08/05 19:05:59;;;;;;;5.05;3.47;;;23.30;99.90;;;;;;8319481;28;20029;-80
2022/08/05 19:10:02;;;;;;;4.63;3.10;;;23.40;99.90;;;;;;8319315;28;20095;-79
2022/08/05 19:14:04;;;;;;;4.43;3.25;;;23.60;99.90;;;;;;8324439;28;20029;-79
2022/08/05 19:18:05;;;;;;;3.55;3.20;;;23.70;99.90;;;;;;8318297;28;20036;-79
2022/08/05 19:22:06;;;;;;;4.80;3.00;;;23.70;99.90;;;;;;8322817;28;20029;-80
2022/08/05 19:30:10;;;;;;;3.80;3.10;;;23.60;99.90;;;;;;8221471;28;20155;-78
2022/08/05 19:34:10;;;;;;;4.97;3.50;;;23.60;99.90;;;;;;8254940;28;20050;-79
2022/08/05 19:38:11;;;;;;;4.72;3.35;;;23.60;99.90;;;;;;8260791;28;20022;-78
2022/08/05 19:42:11;;;;;;;5.85;3.17;;;23.60;99.90;;;;;;8264694;28;20564;-78
2022/08/05 19:46:12;;;;;;;4.30;3.28;;;23.60;99.90;;;;;;8263363;28;20033;-78
2022/08/05 19:50:12;;;;;;;8.38;3.88;;;23.40;99.90;;;;;;8245793;28;20671;-78
2022/08/05 19:54:13;;;;;;;4.75;3.70;;;23.10;99.90;;;;;;8262481;28;20031;-77
2022/08/05 19:58:14;;;;;;;6.47;3.83;;;22.80;99.90;;;;;;8244987;28;20027;-79
2022/08/05 20:02:16;;;;;;;4.43;3.47;;;22.70;99.90;;;;;;8251324;28;20018;-77
2022/08/05 20:06:16;;;;;;;5.25;3.65;;;22.40;99.90;;;;;;8249231;28;20598;-77
2022/08/05 20:10:18;;;;;;;9.80;4.05;;;22.00;99.90;;;;;;8248596;28;20035;-78
2022/08/05 20:14:18;;;;;;;4.63;3.58;;;21.80;99.90;;;;;;8250208;28;20030;-77
2022/08/05 20:18:19;;;;;;;5.63;4.20;;;21.50;99.90;;;;;;8248530;28;20642;-77
2022/08/05 20:22:19;;;;;;;7.57;4.43;;;21.30;99.90;;;;;;8261600;28;20026;-78
2022/08/05 20:26:23;;;;;;;7.50;4.90;;;21.30;99.90;;;;;;8243948;28;20022;-77
2022/08/05 20:30:26;;;;;;;14.00;5.97;;;21.10;99.90;;;;;;8262686;28;20030;-77
2022/08/05 20:34:26;;;;;;;6.68;5.57;;;20.90;99.90;;;;;;8264639;28;20022;-78
2022/08/05 20:38:28;;;;;;;5.82;4.97;;;20.90;99.90;;;;;;8260313;28;20038;-76
2022/08/05 20:42:28;;;;;;;8.10;6.22;;;21.10;99.90;;;;;;8241879;28;20032;-77
2022/08/05 20:46:29;;;;;;;10.07;6.70;;;21.00;99.90;;;;;;8239970;28;20018;-77
2022/08/05 20:50:30;;;;;;;12.00;7.57;;;20.70;99.90;;;;;;8239654;28;20030;-76
2022/08/05 20:54:30;;;;;;;9.55;6.88;;;20.50;99.90;;;;;;8256923;28;20027;-77
2022/08/05 20:58:31;;;;;;;12.55;8.23;;;20.40;99.90;;;;;;8253438;28;20037;-78
2022/08/05 21:02:32;;;;;;;12.32;8.02;;;20.30;99.90;;;;;;8239760;28;20022;-77
2022/08/05 21:06:32;;;;;;;9.80;8.75;;;20.40;99.90;;;;;;8238390;28;20026;-76
2022/08/05 21:10:33;;;;;;;14.63;11.05;;;20.40;99.90;;;;;;8258860;28;20034;-77
2022/08/05 21:14:33;;;;;;;14.13;11.73;;;20.30;99.90;;;;;;8259128;28;20073;-77